createdAt,value
2022-08-30T00:02:11.098Z,6.07
2022-08-30T00:04:38.445Z,5.63
2022-08-30T00:07:05.436Z,6.15
2022-08-30T00:09:33.300Z,6.00
2022-08-30T00:12:01.389Z,5.47
2022-08-30T00:14:28.604Z,5.40
2022-08-30T00:16:55.706Z,5.20
2022-08-30T00:19:22.869Z,4.75
2022-08-30T00:21:51.628Z,4.90
2022-08-30T00:24:18.670Z,5.57
2022-08-30T00:26:45.686Z,5.65
2022-08-30T00:29:12.656Z,4.93
2022-08-30T00:31:39.329Z,4.40
2022-08-30T00:34:06.345Z,4.45
2022-08-30T00:36:33.530Z,4.68
2022-08-30T00:39:00.891Z,4.70
2022-08-30T00:41:27.794Z,4.68
2022-08-30T00:43:55.261Z,4.60
2022-08-30T00:46:22.060Z,4.88
2022-08-30T00:48:50.316Z,6.30
2022-08-30T00:51:17.926Z,5.88
2022-08-30T00:53:51.037Z,5.45
2022-08-30T00:56:18.573Z,5.18
2022-08-30T00:58:51.312Z,5.22
2022-08-30T01:01:19.279Z,5.18
2022-08-30T01:03:47.359Z,5.15
2022-08-30T01:06:17.369Z,5.78
2022-08-30T01:08:46.955Z,5.65
2022-08-30T01:11:20.024Z,6.57
2022-08-30T01:13:47.705Z,6.30
2022-08-30T01:16:15.147Z,6.50
2022-08-30T01:18:43.021Z,6.43
2022-08-30T01:21:16.158Z,6.13
2022-08-30T01:23:46.383Z,6.65
2022-08-30T01:26:15.958Z,5.97
2022-08-30T01:28:45.450Z,5.70
2022-08-30T01:31:12.271Z,5.72
2022-08-30T01:33:39.039Z,5.60
2022-08-30T01:36:11.073Z,5.38
2022-08-30T01:38:43.500Z,5.10
2022-08-30T01:41:36.069Z,4.85
2022-08-30T01:44:07.081Z,4.68
2022-08-30T01:46:38.744Z,5.18
2022-08-30T01:49:08.903Z,4.55
2022-08-30T01:54:02.878Z,3.72
2022-08-30T01:56:30.112Z,3.50
2022-08-30T01:59:02.396Z,2.95
2022-08-30T02:01:32.362Z,3.20
2022-08-30T02:03:59.865Z,4.05
2022-08-30T02:06:27.381Z,3.80
2022-08-30T02:08:55.338Z,4.38
2022-08-30T02:11:22.535Z,4.65
2022-08-30T02:13:50.047Z,4.82
2022-08-30T02:16:22.789Z,3.95
2022-08-30T02:18:51.327Z,3.70
2022-08-30T02:21:18.817Z,4.35
2022-08-30T02:23:46.439Z,4.88
2022-08-30T02:26:13.797Z,5.00
2022-08-30T02:28:42.708Z,5.47
2022-08-30T02:31:19.372Z,6.05
2022-08-30T02:33:49.213Z,4.65
2022-08-30T02:36:16.079Z,5.30
2022-08-30T02:38:43.162Z,5.03
2022-08-30T02:41:09.965Z,4.93
2022-08-30T02:43:37.063Z,5.00
2022-08-30T02:46:04.110Z,5.13
2022-08-30T02:48:31.446Z,5.97
2022-08-30T02:51:11.079Z,5.28
2022-08-30T02:56:05.908Z,4.90
2022-08-30T02:58:33.000Z,4.93
2022-08-30T03:00:59.780Z,5.15
2022-08-30T03:03:26.954Z,5.38
2022-08-30T03:05:53.809Z,4.53
2022-08-30T03:08:20.997Z,5.40
2022-08-30T03:10:47.680Z,5.65
2022-08-30T03:13:14.820Z,5.75
2022-08-30T03:15:41.681Z,4.72
2022-08-30T03:18:09.425Z,4.40
2022-08-30T03:20:36.214Z,4.68
2022-08-30T03:23:03.259Z,4.72
2022-08-30T03:25:29.955Z,4.68
2022-08-30T03:27:57.089Z,4.90
2022-08-30T03:30:23.774Z,3.78
2022-08-30T03:32:50.777Z,4.20
2022-08-30T03:35:18.299Z,4.05
2022-08-30T03:37:46.109Z,3.95
2022-08-30T03:40:17.179Z,4.85
2022-08-30T03:42:46.504Z,5.78
2022-08-30T03:45:14.881Z,4.72
2022-08-30T03:47:42.247Z,4.90
2022-08-30T03:50:10.100Z,7.18
2022-08-30T03:52:37.113Z,5.60
2022-08-30T03:55:05.086Z,6.18
2022-08-30T03:57:32.639Z,6.47
2022-08-30T04:00:01.757Z,7.03
2022-08-30T04:02:29.750Z,7.72
2022-08-30T04:04:56.495Z,7.85
2022-08-30T04:07:23.560Z,7.05
2022-08-30T04:09:50.231Z,8.27
2022-08-30T04:12:18.340Z,7.32
2022-08-30T04:14:49.581Z,7.47
2022-08-30T04:17:16.769Z,7.45
2022-08-30T04:19:43.473Z,7.68
2022-08-30T04:22:10.494Z,6.90
2022-08-30T04:24:38.377Z,6.78
2022-08-30T04:27:05.728Z,7.10
2022-08-30T04:29:33.793Z,6.78
2022-08-30T04:32:01.165Z,7.07
2022-08-30T04:34:28.492Z,6.82
2022-08-30T04:36:55.174Z,7.28
2022-08-30T04:39:22.225Z,6.85
2022-08-30T04:41:48.948Z,6.60
2022-08-30T04:44:19.659Z,7.78
2022-08-30T04:46:46.914Z,6.43
2022-08-30T04:49:13.979Z,6.47
2022-08-30T04:51:41.253Z,6.45
2022-08-30T04:54:08.283Z,7.07
2022-08-30T04:56:35.006Z,6.85
2022-08-30T04:59:02.254Z,6.32
2022-08-30T05:01:31.649Z,6.30
2022-08-30T05:03:59.167Z,8.10
2022-08-30T05:06:28.086Z,6.90
2022-08-30T05:08:55.843Z,6.57
2022-08-30T05:11:23.228Z,6.70
2022-08-30T05:13:50.727Z,6.53
2022-08-30T05:16:20.406Z,6.45
2022-08-30T05:18:49.745Z,6.30
2022-08-30T05:21:22.297Z,6.07
2022-08-30T05:23:50.540Z,6.03
2022-08-30T05:26:25.070Z,6.75
2022-08-30T05:28:52.881Z,6.47
2022-08-30T05:31:32.616Z,6.43
2022-08-30T05:33:59.535Z,6.95
2022-08-30T05:36:28.770Z,6.47
2022-08-30T05:38:57.380Z,6.73
2022-08-30T05:41:26.712Z,6.45
2022-08-30T05:44:01.059Z,6.13
2022-08-30T05:49:08.928Z,5.75
2022-08-30T05:51:43.366Z,5.35
2022-08-30T05:54:14.902Z,5.97
2022-08-30T05:56:45.820Z,5.75
2022-08-30T05:59:13.808Z,5.85
2022-08-30T06:01:44.744Z,6.47
2022-08-30T06:04:13.495Z,6.47
2022-08-30T06:06:43.195Z,6.32
2022-08-30T06:09:11.694Z,5.55
2022-08-30T06:11:38.802Z,6.50
2022-08-30T06:14:06.388Z,6.13
2022-08-30T06:16:35.947Z,6.20
2022-08-30T06:19:02.781Z,5.70
2022-08-30T06:21:32.659Z,5.85
2022-08-30T06:23:59.513Z,5.25
2022-08-30T06:26:28.519Z,5.97
2022-08-30T06:28:56.425Z,6.32
2022-08-30T06:31:25.000Z,6.00
2022-08-30T06:33:52.729Z,6.25
2022-08-30T06:36:23.357Z,5.85
2022-08-30T06:38:52.208Z,6.43
2022-08-30T06:41:22.710Z,6.13
2022-08-30T06:43:50.410Z,6.57
2022-08-30T06:46:20.916Z,6.55
2022-08-30T06:48:48.586Z,6.93
2022-08-30T06:51:19.458Z,6.97
2022-08-30T06:53:46.159Z,6.88
2022-08-30T06:56:16.780Z,7.65
2022-08-30T06:58:44.694Z,6.78
2022-08-30T07:01:23.561Z,7.60
2022-08-30T07:03:51.752Z,8.27
2022-08-30T07:06:19.401Z,7.47
2022-08-30T07:08:47.807Z,7.43
2022-08-30T07:11:15.145Z,7.57
2022-08-30T07:13:41.897Z,8.10
2022-08-30T07:16:14.011Z,7.22
2022-08-30T07:18:55.972Z,7.38
2022-08-30T07:21:36.017Z,7.70
2022-08-30T07:24:03.969Z,7.65
2022-08-30T07:26:35.676Z,7.47
2022-08-30T07:29:02.953Z,8.82
2022-08-30T07:31:30.462Z,7.50
2022-08-30T07:33:57.314Z,7.53
2022-08-30T07:36:24.749Z,8.23
2022-08-30T07:38:52.649Z,7.95
2022-08-30T07:41:31.946Z,8.25
2022-08-30T07:43:58.994Z,8.50
2022-08-30T07:46:31.793Z,8.10
2022-08-30T07:49:00.243Z,7.85
2022-08-30T07:51:30.008Z,8.32
2022-08-30T07:53:57.628Z,8.38
2022-08-30T07:56:25.137Z,8.45
2022-08-30T07:58:51.890Z,8.60
2022-08-30T08:01:22.636Z,7.45
2022-08-30T08:03:51.587Z,7.85
2022-08-30T08:06:21.170Z,7.82
2022-08-30T08:08:50.566Z,7.80
2022-08-30T08:11:24.728Z,8.05
2022-08-30T08:13:53.506Z,7.45
2022-08-30T08:16:29.366Z,7.70
2022-08-30T08:18:56.594Z,7.65
2022-08-30T08:21:25.162Z,7.65
2022-08-30T08:23:51.981Z,8.10
2022-08-30T08:26:20.285Z,7.15
2022-08-30T08:28:47.585Z,7.25
2022-08-30T08:31:19.754Z,7.35
2022-08-30T08:33:53.276Z,6.35
2022-08-30T08:36:20.441Z,6.50
2022-08-30T08:38:47.163Z,7.07
2022-08-30T08:41:39.946Z,6.97
2022-08-30T08:44:35.939Z,7.00
2022-08-30T08:47:26.541Z,6.60
2022-08-30T08:49:58.763Z,6.30
2022-08-30T08:52:49.855Z,6.38
2022-08-30T08:55:20.294Z,5.38
2022-08-30T08:57:48.183Z,6.28
2022-08-30T09:00:15.237Z,5.57
2022-08-30T09:02:44.865Z,4.97
2022-08-30T09:07:46.664Z,4.73
2022-08-30T09:10:13.350Z,4.90
2022-08-30T09:12:40.947Z,4.97
2022-08-30T09:15:36.864Z,4.90
2022-08-30T09:18:11.400Z,4.28
2022-08-30T09:20:49.621Z,4.03
2022-08-30T09:23:17.491Z,4.95
2022-08-30T09:25:56.294Z,4.45
2022-08-30T09:28:43.677Z,4.00
2022-08-30T09:31:24.675Z,4.53
2022-08-30T09:34:19.224Z,3.65
2022-08-30T09:36:51.903Z,3.50
2022-08-30T09:39:27.481Z,4.07
2022-08-30T09:41:55.117Z,4.35
2022-08-30T09:44:25.637Z,4.20
2022-08-30T09:46:56.006Z,4.25
2022-08-30T09:49:38.480Z,3.70
2022-08-30T09:52:11.816Z,4.00
2022-08-30T09:54:59.343Z,3.75
2022-08-30T09:57:39.255Z,3.58
2022-08-30T10:00:23.229Z,4.13
2022-08-30T10:03:05.351Z,4.38
2022-08-30T10:05:55.279Z,3.85
2022-08-30T10:08:44.553Z,3.90
2022-08-30T10:11:26.609Z,4.13
2022-08-30T10:14:12.594Z,4.05
2022-08-30T10:17:00.626Z,3.88
2022-08-30T10:19:54.528Z,4.13
2022-08-30T10:22:42.183Z,4.40
2022-08-30T10:25:21.640Z,3.67
2022-08-30T10:27:53.795Z,4.10
2022-08-30T10:30:21.369Z,3.67
2022-08-30T10:32:59.935Z,3.75
2022-08-30T10:35:38.819Z,3.58
2022-08-30T10:38:21.516Z,3.78
2022-08-30T10:41:12.625Z,4.55
2022-08-30T10:44:01.058Z,3.60
2022-08-30T10:46:38.088Z,3.10
2022-08-30T10:49:08.998Z,3.25
2022-08-30T10:51:53.193Z,3.50
2022-08-30T10:54:44.691Z,3.58
2022-08-30T10:57:11.545Z,3.58
2022-08-30T10:59:47.105Z,2.80
2022-08-30T11:02:36.235Z,3.55
2022-08-30T11:05:26.262Z,3.30
2022-08-30T11:08:03.378Z,3.10
2022-08-30T11:10:41.352Z,2.92
2022-08-30T11:13:21.449Z,3.17
2022-08-30T11:16:03.145Z,3.00
2022-08-30T11:18:43.383Z,3.53
2022-08-30T11:21:31.693Z,3.17
2022-08-30T11:24:11.622Z,3.53
2022-08-30T11:26:50.997Z,3.78
2022-08-30T11:29:32.961Z,3.42
2022-08-30T11:32:13.557Z,3.50
2022-08-30T11:34:48.930Z,2.95
2022-08-30T11:37:42.917Z,2.92
2022-08-30T11:40:19.606Z,3.13
2022-08-30T11:42:52.261Z,3.20
2022-08-30T11:45:25.197Z,3.38
2022-08-30T11:47:54.189Z,3.15
2022-08-30T11:50:27.238Z,3.25
2022-08-30T11:53:07.637Z,3.65
2022-08-30T11:56:08.673Z,2.92
2022-08-30T11:58:48.715Z,3.17
2022-08-30T12:01:42.258Z,3.40
2022-08-30T12:04:17.595Z,3.20
2022-08-30T12:06:49.203Z,3.00
2022-08-30T12:09:26.763Z,3.13
2022-08-30T12:12:08.264Z,2.92
2022-08-30T12:14:40.970Z,3.15
2022-08-30T12:18:00.305Z,3.67
2022-08-30T12:20:44.211Z,3.17
2022-08-30T12:23:29.847Z,3.00
2022-08-30T12:26:13.749Z,2.85
2022-08-30T12:28:42.156Z,2.70
2022-08-30T12:31:20.314Z,3.53
2022-08-30T12:33:54.063Z,3.15
2022-08-30T12:36:49.744Z,3.22
2022-08-30T12:39:21.282Z,3.40
2022-08-30T12:41:48.106Z,3.00
2022-08-30T12:44:28.457Z,3.33
2022-08-30T12:47:00.551Z,3.40
2022-08-30T12:49:30.558Z,3.08
2022-08-30T12:52:31.733Z,3.30
2022-08-30T12:55:17.723Z,3.20
2022-08-30T12:58:09.299Z,3.25
2022-08-30T13:00:40.012Z,2.72
2022-08-30T13:03:25.966Z,3.35
2022-08-30T13:05:57.801Z,3.00
2022-08-30T13:08:36.748Z,3.25
2022-08-30T13:11:11.058Z,3.30
2022-08-30T13:14:08.576Z,3.28
2022-08-30T13:16:40.335Z,3.00
2022-08-30T13:19:36.061Z,2.70
2022-08-30T13:22:04.633Z,3.00
2022-08-30T13:24:31.949Z,3.25
2022-08-30T13:27:11.759Z,2.92
2022-08-30T13:29:41.579Z,3.20
2022-08-30T13:32:08.815Z,3.47
2022-08-30T13:34:36.278Z,9.55
2022-08-30T13:37:04.345Z,16.98
2022-08-30T13:44:47.932Z,3.00
2022-08-30T13:50:03.753Z,3.22
2022-08-30T13:52:30.821Z,3.10
2022-08-30T13:54:58.275Z,3.00
2022-08-30T14:00:19.653Z,3.33
2022-08-30T14:02:54.164Z,3.20
2022-08-30T14:11:16.335Z,2.88
2022-08-30T14:16:34.492Z,3.10
2022-08-30T14:19:01.731Z,2.90
2022-08-30T14:21:28.874Z,3.35
2022-08-30T14:23:57.780Z,2.72
2022-08-30T14:26:32.339Z,2.63
2022-08-30T14:29:04.780Z,3.17
2022-08-30T14:31:32.949Z,3.28
2022-08-30T14:34:01.817Z,3.42
2022-08-30T14:36:30.844Z,2.78
2022-08-30T14:38:58.840Z,2.80
2022-08-30T14:41:25.664Z,2.75
2022-08-30T14:43:52.847Z,2.92
2022-08-30T14:46:19.864Z,2.90
2022-08-30T14:48:47.357Z,2.22
2022-08-30T14:51:19.524Z,2.70
2022-08-30T14:53:47.880Z,2.95
2022-08-30T14:56:19.472Z,3.05
2022-08-30T14:58:50.072Z,3.10
2022-08-30T15:01:17.337Z,3.20
2022-08-30T15:03:44.824Z,3.40
2022-08-30T15:06:12.231Z,2.90
2022-08-30T15:08:39.586Z,3.42
2022-08-30T15:11:13.814Z,3.22
2022-08-30T15:13:42.527Z,3.30
2022-08-30T15:16:25.513Z,3.37
2022-08-30T15:18:53.791Z,3.10
2022-08-30T15:21:25.931Z,3.15
2022-08-30T15:23:54.035Z,3.00
2022-08-30T15:26:21.585Z,3.00
2022-08-30T15:28:48.824Z,2.78
2022-08-30T15:31:16.189Z,2.88
2022-08-30T15:33:44.383Z,3.38
2022-08-30T15:36:12.822Z,3.20
2022-08-30T15:38:39.995Z,2.80
2022-08-30T15:41:09.237Z,2.92
2022-08-30T15:43:36.899Z,3.17
2022-08-30T15:46:29.813Z,2.90
2022-08-30T15:49:00.813Z,3.13
2022-08-30T15:51:28.599Z,3.42
2022-08-30T15:53:58.362Z,3.30
2022-08-30T15:56:25.226Z,3.20
2022-08-30T15:58:53.027Z,2.92
2022-08-30T16:01:22.816Z,3.25
2022-08-30T16:03:58.452Z,2.83
2022-08-30T16:06:31.318Z,3.35
2022-08-30T16:08:59.261Z,2.67
2022-08-30T16:11:26.864Z,2.90
2022-08-30T16:13:55.758Z,3.22
2022-08-30T16:16:23.929Z,3.28
2022-08-30T16:18:54.103Z,3.00
2022-08-30T16:21:30.779Z,2.95
2022-08-30T16:23:59.751Z,3.20
2022-08-30T16:26:28.223Z,2.95
2022-08-30T16:28:55.397Z,3.00
2022-08-30T16:31:23.187Z,2.90
2022-08-30T16:33:52.392Z,3.10
2022-08-30T16:36:20.562Z,3.00
2022-08-30T16:38:48.999Z,3.10
2022-08-30T16:41:21.014Z,3.13
2022-08-30T16:43:53.286Z,2.95
2022-08-30T16:46:23.462Z,3.20
2022-08-30T16:48:57.260Z,3.50
2022-08-30T16:53:58.447Z,3.55
2022-08-30T16:56:27.399Z,3.45
2022-08-30T16:59:01.187Z,3.03
2022-08-30T17:01:30.866Z,3.10
2022-08-30T17:03:57.563Z,3.20
2022-08-30T17:06:24.335Z,3.90
2022-08-30T17:08:54.093Z,3.30
2022-08-30T17:11:23.572Z,3.28
2022-08-30T17:13:50.939Z,3.55
2022-08-30T17:16:27.381Z,3.78
2022-08-30T17:18:59.640Z,3.42
2022-08-30T17:21:31.165Z,3.78
2022-08-30T17:26:45.703Z,4.47
2022-08-30T17:29:12.956Z,4.20
2022-08-30T17:31:46.532Z,3.90
2022-08-30T17:34:21.078Z,3.28
2022-08-30T17:36:50.158Z,4.25
2022-08-30T17:39:17.389Z,3.72
2022-08-30T17:41:50.222Z,3.92
2022-08-30T17:44:20.432Z,4.55
2022-08-30T17:46:47.688Z,4.30
2022-08-30T17:49:15.095Z,4.13
2022-08-30T17:51:42.816Z,3.90
2022-08-30T17:54:12.242Z,4.32
2022-08-30T17:56:40.337Z,4.38
2022-08-30T17:59:09.172Z,4.38
2022-08-30T18:01:37.286Z,4.45
2022-08-30T18:04:06.087Z,4.22
2022-08-30T18:06:33.912Z,4.23
2022-08-30T18:09:01.599Z,4.10
2022-08-30T18:11:28.400Z,4.25
2022-08-30T18:13:55.450Z,3.95
2022-08-30T18:16:26.397Z,4.50
2022-08-30T18:18:56.963Z,4.05
2022-08-30T18:21:24.397Z,4.20
2022-08-30T18:23:52.708Z,4.72
2022-08-30T18:26:24.068Z,4.38
2022-08-30T18:28:51.678Z,4.60
2022-08-30T18:31:18.542Z,4.15
2022-08-30T18:33:47.805Z,4.70
2022-08-30T18:36:14.511Z,4.45
2022-08-30T18:38:42.872Z,4.60
2022-08-30T18:41:13.847Z,4.68
2022-08-30T18:43:41.502Z,5.18
2022-08-30T18:46:11.730Z,5.00
2022-08-30T18:48:39.652Z,4.93
2022-08-30T18:51:12.315Z,5.05
2022-08-30T18:53:40.135Z,4.82
2022-08-30T18:56:08.425Z,5.18
2022-08-30T18:58:36.094Z,5.68
2022-08-30T19:01:03.444Z,5.47
2022-08-30T19:03:33.573Z,5.38
2022-08-30T19:06:05.921Z,5.35
2022-08-30T19:08:35.347Z,5.93
2022-08-30T19:11:02.092Z,5.80
2022-08-30T19:13:32.337Z,5.85
2022-08-30T19:15:59.174Z,5.50
2022-08-30T19:18:27.097Z,5.10
2022-08-30T19:20:53.768Z,5.38
2022-08-30T19:23:23.345Z,5.60
2022-08-30T19:25:52.681Z,5.10
2022-08-30T19:28:20.804Z,5.05
2022-08-30T19:30:47.764Z,5.43
2022-08-30T19:33:14.894Z,5.40
2022-08-30T19:35:42.165Z,5.72
2022-08-30T19:38:09.243Z,5.85
2022-08-30T19:40:36.024Z,5.93
2022-08-30T19:43:04.678Z,6.38
2022-08-30T19:45:31.496Z,5.63
2022-08-30T19:48:01.090Z,5.90
2022-08-30T19:50:28.454Z,5.65
2022-08-30T19:52:55.709Z,5.72
2022-08-30T19:55:28.224Z,6.72
2022-08-30T19:57:57.258Z,6.03
2022-08-30T20:00:24.013Z,6.90
2022-08-30T20:02:51.471Z,6.18
2022-08-30T20:05:19.116Z,6.32
2022-08-30T20:07:50.902Z,6.03
2022-08-30T20:10:19.824Z,6.15
2022-08-30T20:12:49.897Z,6.15
2022-08-30T20:15:18.204Z,6.20
2022-08-30T20:18:05.533Z,5.78
2022-08-30T20:20:33.647Z,5.97
2022-08-30T20:24:25.095Z,4.00
2022-08-30T20:25:31.389Z,6.30
2022-08-30T20:27:59.716Z,5.85
2022-08-30T20:30:27.359Z,6.00
2022-08-30T20:32:54.918Z,6.40
2022-08-30T20:35:23.705Z,6.22
2022-08-30T20:37:51.315Z,6.15
2022-08-30T20:40:18.164Z,6.45
2022-08-30T20:42:46.594Z,6.20
2022-08-30T20:45:16.897Z,5.95
2022-08-30T20:47:45.077Z,6.60
2022-08-30T20:50:15.508Z,6.72
2022-08-30T20:52:43.065Z,7.00
2022-08-30T20:55:11.440Z,6.35
2022-08-30T20:57:39.268Z,6.75
2022-08-30T21:00:10.509Z,6.32
2022-08-30T21:02:46.695Z,6.70
2022-08-30T21:05:15.734Z,6.38
2022-08-30T21:07:44.194Z,6.53
2022-08-30T21:10:11.619Z,7.03
2022-08-30T21:12:39.152Z,7.25
2022-08-30T21:15:27.329Z,6.45
2022-08-30T21:17:53.813Z,6.80
2022-08-30T21:20:20.469Z,6.68
2022-08-30T21:22:47.722Z,6.88
2022-08-30T21:25:14.556Z,6.80
2022-08-30T21:27:43.941Z,6.93
2022-08-30T21:30:13.170Z,6.82
2022-08-30T21:32:40.741Z,7.67
2022-08-30T21:35:27.407Z,6.22
2022-08-30T21:37:54.497Z,6.72
2022-08-30T21:40:21.538Z,6.82
2022-08-30T21:42:48.638Z,7.43
2022-08-30T21:45:15.387Z,6.97
2022-08-30T21:47:42.669Z,6.38
2022-08-30T21:50:09.805Z,6.57
2022-08-30T21:52:36.793Z,6.88
2022-08-30T21:55:04.408Z,7.25
2022-08-30T21:57:31.562Z,7.50
2022-08-30T21:59:58.423Z,7.35
2022-08-30T22:02:25.521Z,7.35
2022-08-30T22:04:52.248Z,7.13
2022-08-30T22:07:19.220Z,7.05
2022-08-30T22:09:45.950Z,6.97
2022-08-30T22:12:12.931Z,6.63
2022-08-30T22:14:40.674Z,7.85
2022-08-30T22:17:07.765Z,6.57
2022-08-30T22:19:34.559Z,6.32
2022-08-30T22:22:02.022Z,6.63
2022-08-30T22:24:32.353Z,6.38
2022-08-30T22:27:00.590Z,6.38
2022-08-30T22:29:27.271Z,6.47
2022-08-30T22:31:54.555Z,6.40
2022-08-30T22:34:22.474Z,6.82
2022-08-30T22:36:49.463Z,6.15
2022-08-30T22:39:16.432Z,6.13
2022-08-30T22:41:44.461Z,6.72
2022-08-30T22:44:11.778Z,5.90
2022-08-30T22:46:39.693Z,6.63
2022-08-30T22:49:08.748Z,6.38
2022-08-30T22:51:36.445Z,5.78
2022-08-30T22:54:04.556Z,5.72
2022-08-30T22:56:33.387Z,5.88
2022-08-30T22:59:00.137Z,5.93
2022-08-30T23:01:29.844Z,5.63
2022-08-30T23:03:58.307Z,5.57
2022-08-30T23:06:25.585Z,6.10
2022-08-30T23:08:52.925Z,5.72
2022-08-30T23:11:19.769Z,5.47
2022-08-30T23:13:47.515Z,5.97
2022-08-30T23:16:15.664Z,5.95
2022-08-30T23:18:45.714Z,5.60
2022-08-30T23:21:19.193Z,5.75
2022-08-30T23:24:04.792Z,5.72
2022-08-30T23:26:50.604Z,5.40
2022-08-30T23:29:36.150Z,5.68
2022-08-30T23:32:22.172Z,5.07
2022-08-30T23:35:07.719Z,4.57
2022-08-30T23:37:53.509Z,5.60
2022-08-30T23:40:40.569Z,5.45
2022-08-30T23:43:27.095Z,4.85
2022-08-30T23:46:19.286Z,5.40
2022-08-30T23:49:09.157Z,4.70
2022-08-30T23:51:56.451Z,4.85
2022-08-30T23:54:42.803Z,5.15
2022-08-30T23:57:28.244Z,4.57
